Time;durP1;ratioP1;P1;durP2;ratioP2;P2;SDS_P1;SDS_P2;PMS_P1;PMS_P2;Temp;Humidity;BMP_temperature;BMP_pressure;BME280_temperature;BME280_humidity;BME280_pressure;Samples;Min_cycle;Max_cycle;Signal;HPM_P1;HPM_P2
2023/03/29 00:00:21;;;;;;;3.17;1.10;;;5.60;99.90;;;;;;5073760;28;20056;-43
2023/03/29 00:02:47;;;;;;;3.80;1.20;;;5.60;99.90;;;;;;5077050;28;20051;-42
2023/03/29 00:05:18;;;;;;;6.13;1.20;;;5.60;99.90;;;;;;5075601;28;20055;-42
2023/03/29 00:07:44;;;;;;;2.22;0.93;;;5.60;99.90;;;;;;5076207;28;20064;-43
2023/03/29 00:10:11;;;;;;;2.83;1.27;;;5.60;99.90;;;;;;5076200;28;20497;-43
2023/03/29 00:12:38;;;;;;;3.33;1.00;;;5.50;99.90;;;;;;5077901;28;20052;-43
2023/03/29 00:15:06;;;;;;;2.83;0.95;;;5.60;99.90;;;;;;5078748;28;20085;-41
2023/03/29 00:17:32;;;;;;;2.58;0.73;;;5.60;99.90;;;;;;5075331;28;20051;-43
2023/03/29 00:19:58;;;;;;;2.70;0.95;;;5.60;99.90;;;;;;5082284;28;20043;-47
2023/03/29 00:22:24;;;;;;;5.78;1.15;;;5.60;99.90;;;;;;5081776;28;20040;-42
2023/03/29 00:24:53;;;;;;;3.50;1.25;;;5.60;99.90;;;;;;5075397;28;20044;-44
2023/03/29 00:27:20;;;;;;;4.45;1.27;;;5.60;99.90;;;;;;5074974;28;20059;-42
2023/03/29 00:29:46;;;;;;;3.17;1.10;;;5.60;99.90;;;;;;5078718;28;20365;-42
2023/03/29 00:32:13;;;;;;;5.05;1.52;;;5.60;99.90;;;;;;5074216;28;20391;-44
2023/03/29 00:34:41;;;;;;;2.88;1.10;;;5.60;99.90;;;;;;5079763;28;20050;-43
2023/03/29 00:37:08;;;;;;;3.75;1.10;;;5.60;99.90;;;;;;5075417;28;20051;-43
2023/03/29 00:39:35;;;;;;;3.58;1.90;;;5.60;99.90;;;;;;5077848;28;20087;-43
2023/03/29 00:42:01;;;;;;;3.47;1.40;;;5.60;99.90;;;;;;5080111;28;20545;-43
2023/03/29 00:44:54;;;;;;;3.47;1.40;;;5.60;99.90;;;;;;5078819;28;20052;-41
2023/03/29 00:47:30;;;;;;;2.45;1.00;;;5.60;99.90;;;;;;5074280;28;20175;-42
2023/03/29 00:50:01;;;;;;;3.60;1.30;;;5.60;99.90;;;;;;5080690;28;20067;-44
2023/03/29 00:52:31;;;;;;;3.20;1.23;;;5.60;99.90;;;;;;5072515;28;21368;-41
2023/03/29 00:55:00;;;;;;;5.50;1.30;;;5.60;99.90;;;;;;5076970;28;20040;-42
2023/03/29 00:57:28;;;;;;;5.18;2.30;;;5.60;99.90;;;;;;5073507;28;20052;-43
2023/03/29 00:59:55;;;;;;;4.82;1.50;;;5.60;99.90;;;;;;5078666;28;20056;-40
2023/03/29 01:02:25;;;;;;;3.78;1.70;;;5.60;99.90;;;;;;5075407;28;20470;-40
2023/03/29 01:04:56;;;;;;;3.97;1.48;;;5.60;99.90;;;;;;5077060;28;20179;-42
2023/03/29 01:07:29;;;;;;;2.92;1.25;;;5.60;99.90;;;;;;5076661;28;20051;-42
2023/03/29 01:10:07;;;;;;;3.88;1.90;;;5.60;99.90;;;;;;5077402;28;20104;-41
2023/03/29 01:12:39;;;;;;;4.15;1.65;;;5.60;99.90;;;;;;5072645;28;20101;-44
2023/03/29 01:15:10;;;;;;;4.03;1.92;;;5.60;99.90;;;;;;5077463;28;20124;-42
2023/03/29 01:17:36;;;;;;;4.18;1.70;;;5.60;99.90;;;;;;5076050;28;20040;-42
2023/03/29 01:20:42;;;;;;;4.32;1.92;;;5.60;99.90;;;;;;5072305;28;20548;-41
2023/03/29 01:23:37;;;;;;;4.70;2.08;;;5.60;99.90;;;;;;5037300;28;20506;-42
2023/03/29 01:26:12;;;;;;;5.35;2.15;;;5.60;99.90;;;;;;5074850;28;20055;-43
2023/03/29 01:28:45;;;;;;;6.95;1.83;;;5.60;99.90;;;;;;5075558;28;20067;-41
2023/03/29 01:31:35;;;;;;;5.65;1.95;;;5.60;99.90;;;;;;5078448;28;20059;-44
2023/03/29 01:34:13;;;;;;;4.45;1.88;;;5.60;99.90;;;;;;5075132;28;20075;-41
2023/03/29 01:36:48;;;;;;;2.97;1.50;;;5.60;99.90;;;;;;5078746;28;20059;-42
2023/03/29 01:39:14;;;;;;;4.03;1.95;;;5.60;99.90;;;;;;5084331;28;20090;-43
2023/03/29 01:41:47;;;;;;;4.68;1.67;;;5.60;99.90;;;;;;5080704;28;20083;-43
2023/03/29 01:44:30;;;;;;;5.55;1.83;;;5.60;99.90;;;;;;5084152;28;21302;-47
2023/03/29 01:47:21;;;;;;;6.50;2.00;;;5.60;99.90;;;;;;5076489;28;20136;-40
2023/03/29 01:50:14;;;;;;;4.43;2.13;;;5.60;99.90;;;;;;5075664;28;20048;-43
2023/03/29 01:52:53;;;;;;;4.30;1.45;;;5.60;99.90;;;;;;5081834;28;20516;-43
2023/03/29 01:55:24;;;;;;;3.95;1.85;;;5.60;99.90;;;;;;5079957;28;20079;-41
2023/03/29 01:57:51;;;;;;;4.15;1.67;;;5.60;99.90;;;;;;5061923;28;20048;-41
2023/03/29 02:00:23;;;;;;;3.80;1.52;;;5.60;99.90;;;;;;5077201;28;20086;-41
2023/03/29 02:02:52;;;;;;;4.10;1.92;;;5.60;99.90;;;;;;5074421;28;20324;-43
2023/03/29 02:05:21;;;;;;;5.47;1.88;;;5.60;99.90;;;;;;5078483;28;20055;-43
2023/03/29 02:07:49;;;;;;;3.70;1.88;;;5.60;99.90;;;;;;5083950;28;20063;-42
2023/03/29 02:10:16;;;;;;;3.47;1.42;;;5.60;99.90;;;;;;5077853;28;20071;-42
2023/03/29 02:12:42;;;;;;;4.20;1.67;;;5.60;99.90;;;;;;5081570;28;20501;-41
2023/03/29 02:15:13;;;;;;;7.05;2.45;;;5.60;99.90;;;;;;5080770;28;20078;-42
2023/03/29 02:17:39;;;;;;;7.07;1.80;;;5.70;99.90;;;;;;5076535;28;20062;-42
2023/03/29 02:20:16;;;;;;;5.72;2.13;;;5.70;99.90;;;;;;5072853;28;20048;-40
2023/03/29 02:22:47;;;;;;;4.40;1.77;;;5.70;99.90;;;;;;5081609;28;20386;-40
2023/03/29 02:25:14;;;;;;;5.97;1.92;;;5.60;99.90;;;;;;5078937;28;20052;-41
2023/03/29 02:27:40;;;;;;;4.00;1.98;;;5.70;99.90;;;;;;5075267;28;20445;-42
2023/03/29 02:30:08;;;;;;;4.85;1.95;;;5.70;99.90;;;;;;5077190;28;20064;-40
2023/03/29 02:32:55;;;;;;;3.47;1.70;;;5.70;99.90;;;;;;5076214;28;20139;-42
2023/03/29 02:35:32;;;;;;;3.15;1.10;;;5.70;99.90;;;;;;5077094;28;20056;-42
2023/03/29 02:38:01;;;;;;;4.50;2.05;;;5.70;99.90;;;;;;5078508;28;20062;-38
2023/03/29 02:40:27;;;;;;;5.00;1.88;;;5.70;99.90;;;;;;5080863;28;20049;-40
2023/03/29 02:42:55;;;;;;;4.03;1.92;;;5.70;99.90;;;;;;5077833;28;20056;-41
2023/03/29 02:45:22;;;;;;;4.30;1.80;;;5.70;99.90;;;;;;5075842;28;20504;-40
2023/03/29 02:48:00;;;;;;;4.60;1.80;;;5.70;99.90;;;;;;5043503;28;20063;-43
2023/03/29 02:50:30;;;;;;;3.80;1.70;;;5.70;99.90;;;;;;5079356;28;20083;-40
2023/03/29 02:53:01;;;;;;;3.92;1.50;;;5.70;99.90;;;;;;5081808;28;20043;-39
2023/03/29 02:55:33;;;;;;;7.00;2.28;;;5.70;99.90;;;;;;5077348;28;20059;-43
2023/03/29 02:58:06;;;;;;;2.95;1.25;;;5.70;99.90;;;;;;5079626;28;20059;-42
2023/03/29 03:00:33;;;;;;;5.18;1.77;;;5.70;99.90;;;;;;5075130;28;20059;-43
2023/03/29 03:02:58;;;;;;;6.90;1.80;;;5.70;99.90;;;;;;5081286;28;20052;-43
2023/03/29 03:05:24;;;;;;;3.22;1.63;;;5.70;99.90;;;;;;5079390;28;20562;-40
2023/03/29 03:07:50;;;;;;;7.63;2.05;;;5.70;99.90;;;;;;5076257;28;20059;-42
2023/03/29 03:10:18;;;;;;;5.00;2.00;;;5.70;99.90;;;;;;5074709;28;20055;-45
2023/03/29 03:12:43;;;;;;;3.47;1.52;;;5.80;99.90;;;;;;5058639;28;20511;-40
2023/03/29 03:15:09;;;;;;;5.95;1.88;;;5.70;99.90;;;;;;5076115;28;20139;-40
2023/03/29 03:17:38;;;;;;;3.58;1.73;;;5.80;99.90;;;;;;5077545;28;20413;-42
2023/03/29 03:20:09;;;;;;;2.92;1.63;;;5.80;99.90;;;;;;5076053;28;20044;-46
2023/03/29 03:22:35;;;;;;;4.97;1.83;;;5.80;99.90;;;;;;5075355;28;20520;-41
2023/03/29 03:25:01;;;;;;;4.90;1.73;;;5.80;99.90;;;;;;5080739;28;20040;-40
2023/03/29 03:27:26;;;;;;;4.97;1.70;;;5.80;99.90;;;;;;5077858;28;20048;-40
2023/03/29 03:29:52;;;;;;;5.15;1.73;;;5.80;99.90;;;;;;5077322;28;20067;-42
2023/03/29 03:32:18;;;;;;;3.58;1.80;;;5.80;99.90;;;;;;5083142;28;20561;-42
2023/03/29 03:34:43;;;;;;;4.90;2.05;;;5.80;99.90;;;;;;5076790;28;20441;-42
2023/03/29 03:37:10;;;;;;;6.38;1.85;;;5.90;99.90;;;;;;5075326;28;20062;-45
2023/03/29 03:39:36;;;;;;;3.58;1.60;;;5.80;99.90;;;;;;5073625;28;20553;-42
2023/03/29 03:42:02;;;;;;;5.22;2.10;;;5.80;99.90;;;;;;5076356;28;20051;-41
2023/03/29 03:44:28;;;;;;;5.30;1.92;;;5.90;99.90;;;;;;5077043;28;20058;-41
2023/03/29 03:46:54;;;;;;;3.90;1.63;;;5.80;99.90;;;;;;5076041;28;20052;-41
2023/03/29 03:49:20;;;;;;;6.35;2.15;;;5.90;99.90;;;;;;5078385;28;20047;-42
2023/03/29 03:51:46;;;;;;;4.75;2.00;;;5.90;99.90;;;;;;5074922;28;20429;-45
2023/03/29 03:54:12;;;;;;;7.28;2.20;;;5.90;99.90;;;;;;5078594;28;20047;-44
2023/03/29 03:56:38;;;;;;;5.28;1.90;;;5.90;99.90;;;;;;5067509;28;20048;-40
2023/03/29 03:59:04;;;;;;;4.60;1.88;;;5.90;99.90;;;;;;5078744;28;20048;-42
2023/03/29 04:01:30;;;;;;;5.22;1.83;;;5.90;99.90;;;;;;5075242;28;20112;-39
2023/03/29 04:03:55;;;;;;;6.25;1.88;;;5.90;99.90;;;;;;5075008;28;20040;-42
2023/03/29 04:06:21;;;;;;;6.20;2.03;;;5.90;99.90;;;;;;5076301;28;20444;-39
2023/03/29 04:08:47;;;;;;;4.55;2.03;;;5.90;99.90;;;;;;5075502;28;20060;-43
2023/03/29 04:11:12;;;;;;;5.47;1.80;;;5.90;99.90;;;;;;5078464;28;20058;-41
2023/03/29 04:13:38;;;;;;;4.93;2.03;;;5.90;99.90;;;;;;5071535;28;20051;-42
2023/03/29 04:16:05;;;;;;;4.88;2.15;;;6.00;99.90;;;;;;5072729;28;20048;-42
2023/03/29 04:18:31;;;;;;;4.80;2.40;;;5.90;99.90;;;;;;5076980;28;20043;-37
2023/03/29 04:20:57;;;;;;;7.40;2.50;;;5.90;99.90;;;;;;5075664;28;20056;-42
2023/03/29 04:23:22;;;;;;;4.70;1.98;;;5.90;99.90;;;;;;5075282;28;20529;-42
2023/03/29 04:25:48;;;;;;;5.18;2.33;;;5.90;99.90;;;;;;5078408;28;20044;-41
2023/03/29 04:28:14;;;;;;;5.53;2.13;;;5.90;99.90;;;;;;5081179;28;20421;-45
2023/03/29 04:30:40;;;;;;;4.53;2.10;;;5.90;99.90;;;;;;5075951;28;20494;-41
2023/03/29 04:33:06;;;;;;;6.15;2.35;;;5.90;99.90;;;;;;5078402;28;20052;-39
2023/03/29 04:35:32;;;;;;;6.40;2.30;;;5.90;99.90;;;;;;5073245;28;20044;-40
2023/03/29 04:37:57;;;;;;;4.15;2.08;;;5.90;99.90;;;;;;5076630;28;20562;-42
2023/03/29 04:40:23;;;;;;;5.78;2.67;;;5.90;99.90;;;;;;5078379;28;20082;-41
2023/03/29 04:42:50;;;;;;;4.57;2.30;;;5.80;99.90;;;;;;5077755;28;20208;-41
2023/03/29 04:45:16;;;;;;;5.30;2.40;;;5.80;99.90;;;;;;5078130;28;20097;-40
2023/03/29 04:47:44;;;;;;;5.35;2.53;;;5.80;99.90;;;;;;5077702;28;20052;-42
2023/03/29 04:50:10;;;;;;;5.95;2.70;;;5.80;99.90;;;;;;5076674;28;20049;-41
2023/03/29 04:52:36;;;;;;;4.72;2.47;;;5.80;99.90;;;;;;5077030;28;20541;-42
2023/03/29 04:55:03;;;;;;;7.18;2.50;;;5.80;99.90;;;;;;5075486;28;20071;-43
2023/03/29 04:57:29;;;;;;;7.07;2.53;;;5.80;99.90;;;;;;5079296;28;20561;-42
2023/03/29 04:59:55;;;;;;;5.85;2.45;;;5.80;99.90;;;;;;5071575;28;20055;-41
2023/03/29 05:02:21;;;;;;;5.15;2.15;;;5.80;99.90;;;;;;5080486;28;20097;-42
2023/03/29 05:04:47;;;;;;;6.85;2.58;;;5.80;99.90;;;;;;5084962;28;20052;-40
2023/03/29 05:07:14;;;;;;;5.53;2.33;;;5.80;99.90;;;;;;5081078;28;20055;-40
2023/03/29 05:09:40;;;;;;;5.72;2.60;;;5.80;99.90;;;;;;5083739;28;20052;-41
2023/03/29 05:12:06;;;;;;;9.02;2.72;;;5.80;99.90;;;;;;5081257;28;20037;-41
2023/03/29 05:14:32;;;;;;;5.80;3.03;;;5.80;99.90;;;;;;5080477;28;20071;-42
2023/03/29 05:16:57;;;;;;;6.85;3.17;;;5.80;99.90;;;;;;5078200;28;20471;-42
2023/03/29 05:19:24;;;;;;;20.13;3.47;;;5.70;99.90;;;;;;5081792;28;20075;-45
2023/03/29 05:21:51;;;;;;;7.78;2.60;;;5.80;99.90;;;;;;5076236;28;20040;-40
2023/03/29 05:24:18;;;;;;;6.28;2.80;;;5.80;99.90;;;;;;5077776;28;20051;-41
2023/03/29 05:26:43;;;;;;;7.65;3.25;;;5.80;99.90;;;;;;5055113;28;20044;-41
2023/03/29 05:29:09;;;;;;;5.97;3.10;;;5.80;99.90;;;;;;5077152;28;20132;-42
2023/03/29 05:31:36;;;;;;;6.60;3.45;;;5.80;99.90;;;;;;5062072;28;20474;-41
2023/03/29 05:34:04;;;;;;;9.70;3.03;;;5.80;99.90;;;;;;5066399;28;20079;-41
2023/03/29 05:36:29;;;;;;;6.82;3.15;;;5.80;99.90;;;;;;5056016;28;20039;-41
2023/03/29 05:38:56;;;;;;;8.07;3.13;;;5.80;99.90;;;;;;5063278;28;20409;-41
2023/03/29 05:41:23;;;;;;;5.15;2.92;;;5.80;99.90;;;;;;5081921;28;20044;-43
2023/03/29 05:43:49;;;;;;;6.20;3.03;;;5.80;99.90;;;;;;5063186;28;20646;-41
2023/03/29 05:46:15;;;;;;;7.00;3.20;;;5.80;99.90;;;;;;5084482;28;20139;-42
2023/03/29 05:48:41;;;;;;;6.85;2.90;;;5.80;99.90;;;;;;5083680;28;20394;-41
2023/03/29 05:51:07;;;;;;;7.38;2.95;;;5.80;99.90;;;;;;5066721;28;20052;-43
2023/03/29 05:53:33;;;;;;;7.40;3.67;;;5.80;99.90;;;;;;5079331;28;20045;-42
2023/03/29 05:55:58;;;;;;;8.43;3.67;;;5.80;99.90;;;;;;5076060;28;20059;-41
2023/03/29 05:58:25;;;;;;;6.80;3.67;;;5.90;99.90;;;;;;5078907;28;20386;-44
2023/03/29 06:00:51;;;;;;;7.25;3.42;;;5.90;99.90;;;;;;5067845;28;20477;-41
2023/03/29 06:03:19;;;;;;;6.60;3.08;;;5.90;99.90;;;;;;5080040;28;20117;-41
2023/03/29 06:05:48;;;;;;;6.85;2.70;;;5.90;99.90;;;;;;5080074;28;20102;-40
2023/03/29 06:08:15;;;;;;;7.53;3.90;;;5.90;99.90;;;;;;5081721;28;20560;-42
2023/03/29 06:10:42;;;;;;;7.88;3.15;;;6.00;99.90;;;;;;5075988;28;20052;-41
2023/03/29 06:13:08;;;;;;;7.05;3.50;;;6.00;99.90;;;;;;5055787;28;20043;-40
2023/03/29 06:15:34;;;;;;;7.68;3.70;;;6.00;99.90;;;;;;5079017;28;20505;-42
2023/03/29 06:18:02;;;;;;;7.32;4.10;;;6.00;99.90;;;;;;5060871;28;20052;-41
2023/03/29 06:20:28;;;;;;;7.22;3.50;;;6.10;99.90;;;;;;5080937;28;20063;-40
2023/03/29 06:22:53;;;;;;;6.78;3.40;;;6.10;99.90;;;;;;5079219;28;20078;-41
2023/03/29 06:25:19;;;;;;;6.25;3.08;;;6.10;99.90;;;;;;5076806;28;20059;-41
2023/03/29 06:27:46;;;;;;;6.32;3.20;;;6.10;99.90;;;;;;5074751;28;20059;-41
2023/03/29 06:30:14;;;;;;;8.65;3.45;;;6.10;99.90;;;;;;5074330;28;20082;-42
2023/03/29 06:32:43;;;;;;;8.35;3.05;;;6.20;99.90;;;;;;5076048;28;20104;-35
2023/03/29 06:35:10;;;;;;;7.43;3.22;;;6.20;99.90;;;;;;5078307;28;20187;-35
2023/03/29 06:37:37;;;;;;;8.05;3.33;;;6.20;99.90;;;;;;5077642;28;20092;-35
2023/03/29 06:40:05;;;;;;;7.95;2.80;;;6.30;99.90;;;;;;5068023;28;20048;-37
2023/03/29 06:42:31;;;;;;;7.28;3.35;;;6.30;99.90;;;;;;5080122;28;20148;-35
2023/03/29 06:44:58;;;;;;;13.18;3.20;;;6.30;99.90;;;;;;5078908;28;20044;-35
2023/03/29 06:47:29;;;;;;;8.02;3.17;;;6.30;99.90;;;;;;5081432;28;20115;-35
2023/03/29 06:49:55;;;;;;;7.63;3.47;;;6.40;99.90;;;;;;5083802;28;20500;-35
2023/03/29 06:52:21;;;;;;;6.70;3.40;;;6.40;99.90;;;;;;5073373;28;20051;-36
2023/03/29 06:54:46;;;;;;;9.02;3.25;;;6.40;99.90;;;;;;5081773;28;20131;-35
2023/03/29 06:57:12;;;;;;;5.55;2.95;;;6.50;99.90;;;;;;5079045;28;20109;-35
2023/03/29 06:59:38;;;;;;;6.75;2.92;;;6.50;99.90;;;;;;5079481;28;20601;-35
2023/03/29 07:02:04;;;;;;;6.80;3.28;;;6.50;99.90;;;;;;5072174;28;20060;-42
2023/03/29 07:04:31;;;;;;;5.68;2.97;;;6.60;99.90;;;;;;5072142;28;20052;-42
2023/03/29 07:07:04;;;;;;;7.50;3.47;;;6.60;99.90;;;;;;5072142;28;20089;-43
2023/03/29 07:09:31;;;;;;;9.98;3.30;;;6.60;99.90;;;;;;5070829;28;20056;-36
2023/03/29 07:11:57;;;;;;;7.07;3.20;;;6.70;99.90;;;;;;5069421;28;20048;-35
2023/03/29 07:14:27;;;;;;;5.68;3.10;;;6.70;99.90;;;;;;5063062;28;20040;-35
2023/03/29 07:16:54;;;;;;;6.35;3.03;;;6.80;99.90;;;;;;5066442;28;20509;-36
2023/03/29 07:19:21;;;;;;;8.45;3.45;;;6.80;99.90;;;;;;5061501;28;20793;-35
2023/03/29 07:21:47;;;;;;;7.80;3.30;;;6.80;99.90;;;;;;5065169;28;20036;-35
2023/03/29 07:24:13;;;;;;;8.00;3.30;;;6.90;99.90;;;;;;5066318;28;20206;-35
2023/03/29 07:26:39;;;;;;;7.65;3.30;;;6.90;99.90;;;;;;5072432;28;20044;-36
2023/03/29 07:29:05;;;;;;;7.07;3.00;;;7.00;99.90;;;;;;5063982;28;20053;-35
2023/03/29 07:31:34;;;;;;;5.68;2.83;;;7.00;99.90;;;;;;5072385;28;20047;-35
2023/03/29 07:34:02;;;;;;;6.28;2.90;;;7.00;99.90;;;;;;5064735;28;20052;-35
2023/03/29 07:36:28;;;;;;;6.28;3.22;;;7.00;99.90;;;;;;5071642;28;20044;-36
2023/03/29 07:38:55;;;;;;;6.03;2.75;;;7.10;99.90;;;;;;5075540;28;20055;-36
2023/03/29 07:41:21;;;;;;;7.57;3.33;;;7.10;99.90;;;;;;5070465;28;20051;-36
2023/03/29 07:43:48;;;;;;;7.78;3.85;;;7.10;99.90;;;;;;5080957;28;20451;-38
2023/03/29 07:46:14;;;;;;;7.07;3.25;;;7.20;99.90;;;;;;5054384;28;20064;-38
2023/03/29 07:48:40;;;;;;;7.40;3.00;;;7.20;99.90;;;;;;5073624;28;20048;-38
2023/03/29 07:51:06;;;;;;;7.57;3.35;;;7.30;99.90;;;;;;5074104;28;20530;-38
2023/03/29 07:53:32;;;;;;;7.80;3.63;;;7.30;99.90;;;;;;5074697;28;20068;-39
2023/03/29 07:55:58;;;;;;;6.05;3.13;;;7.40;99.90;;;;;;5057489;28;20701;-38
2023/03/29 07:58:23;;;;;;;6.72;2.88;;;7.40;99.90;;;;;;5053843;28;20790;-40
2023/03/29 08:00:49;;;;;;;5.97;2.90;;;7.50;99.90;;;;;;5070980;28;20055;-38
2023/03/29 08:03:15;;;;;;;6.95;3.20;;;7.50;99.90;;;;;;5073968;28;20048;-40
2023/03/29 08:05:42;;;;;;;6.55;2.97;;;7.50;99.90;;;;;;5077647;28;20056;-39
2023/03/29 08:08:08;;;;;;;6.38;2.75;;;7.60;99.90;;;;;;5075479;28;20105;-38
2023/03/29 08:10:37;;;;;;;7.75;2.72;;;7.60;99.90;;;;;;5080738;28;20048;-39
2023/03/29 08:13:07;;;;;;;6.13;2.95;;;7.60;99.90;;;;;;5077056;28;20071;-38
2023/03/29 08:15:34;;;;;;;6.00;2.90;;;7.70;99.90;;;;;;5057692;28;20048;-38
2023/03/29 08:17:59;;;;;;;6.90;2.75;;;7.80;99.90;;;;;;5073152;28;20052;-38
2023/03/29 08:20:26;;;;;;;8.20;2.83;;;7.80;99.90;;;;;;5072850;28;20109;-39
2023/03/29 08:22:53;;;;;;;8.23;3.30;;;7.80;99.90;;;;;;5074632;28;20048;-38
2023/03/29 08:25:19;;;;;;;5.65;2.38;;;7.90;99.90;;;;;;5077504;28;20496;-38
2023/03/29 08:27:44;;;;;;;8.00;2.75;;;7.90;99.90;;;;;;5077372;28;20060;-35
2023/03/29 08:30:10;;;;;;;6.68;2.65;;;7.90;99.90;;;;;;5079751;28;20048;-34
2023/03/29 08:32:37;;;;;;;8.77;2.53;;;8.00;99.90;;;;;;5077844;28;20145;-34
2023/03/29 08:35:05;;;;;;;6.72;2.60;;;8.00;99.90;;;;;;5073324;28;20101;-35
2023/03/29 08:37:31;;;;;;;7.38;2.95;;;8.10;99.90;;;;;;5077344;28;20071;-39
2023/03/29 08:39:57;;;;;;;5.88;2.60;;;8.10;99.90;;;;;;5078422;28;20083;-38
2023/03/29 08:42:53;;;;;;;6.93;3.20;;;8.20;99.90;;;;;;5073636;28;20048;-37
2023/03/29 08:45:43;;;;;;;6.78;2.58;;;8.20;99.90;;;;;;5077482;28;20052;-41
2023/03/29 08:48:24;;;;;;;5.82;2.67;;;8.30;99.90;;;;;;5079491;28;20509;-41
2023/03/29 08:50:53;;;;;;;6.07;3.22;;;8.40;99.90;;;;;;5082134;28;20079;-40
2023/03/29 08:53:26;;;;;;;5.43;2.65;;;8.40;99.90;;;;;;5060740;28;20069;-41
2023/03/29 08:55:54;;;;;;;6.80;2.72;;;8.50;99.90;;;;;;5080292;28;20553;-42
2023/03/29 08:58:25;;;;;;;6.18;2.80;;;8.50;99.90;;;;;;5080105;28;20052;-40
2023/03/29 09:00:57;;;;;;;7.00;3.00;;;8.60;99.90;;;;;;5078796;28;20094;-42
2023/03/29 09:03:24;;;;;;;7.10;2.92;;;8.60;99.90;;;;;;5085769;28;20080;-41
2023/03/29 09:06:20;;;;;;;9.23;3.35;;;8.70;99.90;;;;;;5086904;28;20100;-42
2023/03/29 09:08:50;;;;;;;9.45;4.22;;;8.70;99.90;;;;;;5057948;28;20075;-43
2023/03/29 09:11:25;;;;;;;9.57;3.63;;;8.80;99.90;;;;;;5087735;28;20048;-45
2023/03/29 09:14:00;;;;;;;8.80;3.67;;;9.00;99.90;;;;;;5078455;28;20513;-42
2023/03/29 09:16:50;;;;;;;6.43;3.13;;;9.00;99.90;;;;;;5076502;28;20524;-43
2023/03/29 09:19:44;;;;;;;7.57;3.40;;;9.20;99.90;;;;;;5087517;28;20547;-42
2023/03/29 09:22:53;;;;;;;13.15;4.20;;;9.30;99.90;;;;;;5058331;28;20464;-42
2023/03/29 09:25:31;;;;;;;8.45;4.15;;;9.40;99.90;;;;;;5084345;28;20052;-42
2023/03/29 09:28:09;;;;;;;9.40;3.80;;;9.50;99.90;;;;;;5084225;28;20056;-42
2023/03/29 09:30:48;;;;;;;9.57;4.32;;;9.50;99.90;;;;;;5086216;28;20531;-42
2023/03/29 09:33:41;;;;;;;6.85;3.92;;;9.50;99.90;;;;;;5080303;28;20063;-42
2023/03/29 09:36:20;;;;;;;9.10;4.82;;;9.50;99.90;;;;;;5082362;28;20129;-42
2023/03/29 09:38:47;;;;;;;8.88;4.05;;;9.60;99.90;;;;;;5079878;28;20058;-42
2023/03/29 09:41:25;;;;;;;8.30;3.85;;;9.60;99.90;;;;;;5058244;28;20049;-45
2023/03/29 09:43:52;;;;;;;8.07;4.10;;;9.70;99.90;;;;;;5079820;28;20056;-43
2023/03/29 09:46:27;;;;;;;12.63;4.70;;;9.70;99.90;;;;;;5080623;28;20052;-42
2023/03/29 09:48:55;;;;;;;10.68;4.40;;;9.70;99.90;;;;;;5074699;28;20063;-43
2023/03/29 09:51:25;;;;;;;10.45;4.05;;;9.80;99.90;;;;;;5075842;28;20051;-41
2023/03/29 09:53:53;;;;;;;12.27;4.82;;;9.90;99.90;;;;;;5063436;28;20084;-41
2023/03/29 09:56:19;;;;;;;11.02;4.80;;;9.90;99.90;;;;;;5078569;28;20493;-43
2023/03/29 09:58:45;;;;;;;10.05;4.75;;;10.00;99.90;;;;;;5080201;28;20055;-42
2023/03/29 10:01:14;;;;;;;10.00;4.70;;;10.10;99.90;;;;;;5062518;28;20060;-41
2023/03/29 10:03:40;;;;;;;8.77;4.25;;;10.10;99.90;;;;;;5081351;28;20485;-41
2023/03/29 10:06:09;;;;;;;8.10;4.70;;;10.30;99.90;;;;;;5079187;28;20070;-41
2023/03/29 10:08:43;;;;;;;10.05;4.25;;;10.40;99.90;;;;;;5077043;28;20044;-45
2023/03/29 10:11:18;;;;;;;10.10;4.82;;;10.50;99.90;;;;;;5077183;28;20071;-44
2023/03/29 10:13:48;;;;;;;8.57;4.25;;;10.60;99.90;;;;;;5080035;28;20506;-42
2023/03/29 10:16:22;;;;;;;10.25;4.40;;;10.80;99.90;;;;;;5078982;28;20048;-42
2023/03/29 10:18:49;;;;;;;7.60;4.07;;;11.00;99.90;;;;;;5083031;28;20489;-42
2023/03/29 10:21:16;;;;;;;7.38;4.10;;;11.10;99.90;;;;;;5079577;28;20052;-43
2023/03/29 10:23:42;;;;;;;8.98;4.07;;;11.20;99.90;;;;;;5080250;28;20560;-42
2023/03/29 10:26:43;;;;;;;7.63;4.18;;;11.30;99.90;;;;;;5058964;28;20144;-42
2023/03/29 10:29:11;;;;;;;7.95;3.72;;;11.40;99.90;;;;;;5028575;28;20542;-44
2023/03/29 10:31:40;;;;;;;7.05;3.92;;;11.50;99.90;;;;;;5062752;28;20519;-42
2023/03/29 10:34:07;;;;;;;8.73;4.43;;;11.50;99.90;;;;;;5079681;28;20214;-42
2023/03/29 10:36:33;;;;;;;12.25;4.28;;;11.60;99.90;;;;;;5082246;28;20490;-41
2023/03/29 10:39:02;;;;;;;7.22;4.53;;;11.60;99.90;;;;;;5075618;28;20048;-41
2023/03/29 10:41:32;;;;;;;12.05;3.95;;;11.70;99.90;;;;;;5081121;28;20056;-40
2023/03/29 10:43:59;;;;;;;10.10;5.03;;;11.70;99.90;;;;;;5081773;28;20078;-41
2023/03/29 10:46:30;;;;;;;7.95;3.97;;;11.80;99.90;;;;;;5076791;28;20062;-43
2023/03/29 10:49:08;;;;;;;10.25;4.50;;;11.90;99.90;;;;;;5077841;28;20047;-43
2023/03/29 10:51:35;;;;;;;7.97;3.65;;;12.00;99.90;;;;;;5080003;28;20518;-42
2023/03/29 10:54:02;;;;;;;8.65;4.55;;;12.00;99.90;;;;;;5073156;28;20138;-46
2023/03/29 10:56:48;;;;;;;11.10;5.00;;;12.10;99.90;;;;;;5075724;28;20735;-42
2023/03/29 10:59:36;;;;;;;9.70;3.65;;;12.10;99.90;;;;;;5078030;28;20059;-43
2023/03/29 11:02:13;;;;;;;9.55;3.60;;;12.20;99.90;;;;;;5079464;28;20550;-44
2023/03/29 11:04:44;;;;;;;11.75;3.85;;;12.30;99.90;;;;;;5077326;28;20075;-44
2023/03/29 11:07:30;;;;;;;6.53;3.70;;;12.30;99.90;;;;;;5072152;28;20056;-42
2023/03/29 11:10:18;;;;;;;8.40;3.90;;;12.30;99.90;;;;;;5077919;28;20044;-41
2023/03/29 11:13:22;;;;;;;8.30;3.90;;;12.50;99.90;;;;;;5075193;28;20959;-43
2023/03/29 11:15:51;;;;;;;6.45;3.38;;;12.40;99.90;;;;;;5076771;28;20055;-42
2023/03/29 11:18:44;;;;;;;6.43;3.92;;;12.50;99.90;;;;;;5080074;28;20044;-43
2023/03/29 11:21:16;;;;;;;7.47;4.18;;;12.50;99.90;;;;;;5079029;28;20453;-43
2023/03/29 11:24:03;;;;;;;7.63;3.38;;;12.50;99.90;;;;;;5043206;28;20060;-43
2023/03/29 11:26:46;;;;;;;5.90;3.58;;;12.60;99.90;;;;;;5079591;28;20048;-43
2023/03/29 11:29:24;;;;;;;;;;;12.60;99.90;;;;;;5079439;28;20064;-44
2023/03/29 11:32:05;;;;;;;7.68;3.30;;;12.60;99.90;;;;;;5074475;28;20335;-45
2023/03/29 11:34:35;;;;;;;6.50;3.33;;;12.60;99.90;;;;;;5080356;28;20138;-43
2023/03/29 11:37:14;;;;;;;6.40;3.97;;;12.70;99.90;;;;;;5083138;28;20190;-43
2023/03/29 11:39:46;;;;;;;8.27;3.25;;;12.70;99.90;;;;;;5078854;28;20612;-48
2023/03/29 11:42:22;;;;;;;8.52;3.13;;;12.80;99.90;;;;;;5083363;28;20071;-42
2023/03/29 11:44:51;;;;;;;6.45;3.35;;;12.80;99.90;;;;;;5077703;28;20057;-41
2023/03/29 11:47:20;;;;;;;6.57;3.15;;;12.90;99.90;;;;;;5079397;28;20052;-41
2023/03/29 11:50:02;;;;;;;6.22;3.50;;;13.00;99.90;;;;;;5077259;28;20048;-42
2023/03/29 11:52:39;;;;;;;5.47;3.00;;;13.00;99.90;;;;;;5077019;28;20049;-42
2023/03/29 11:55:17;;;;;;;5.97;3.10;;;13.00;99.90;;;;;;5083472;28;20123;-42
2023/03/29 11:58:13;;;;;;;7.78;3.72;;;13.00;99.90;;;;;;5080096;28;20051;-41
2023/03/29 12:00:47;;;;;;;10.07;3.95;;;13.20;99.90;;;;;;5062496;28;20060;-35
2023/03/29 12:03:40;;;;;;;6.47;3.47;;;13.30;99.90;;;;;;5077254;28;20058;-35
2023/03/29 12:06:30;;;;;;;8.95;3.90;;;13.40;99.90;;;;;;5064840;28;20055;-36
2023/03/29 12:09:36;;;;;;;8.65;3.35;;;13.40;99.90;;;;;;5072839;28;20056;-36
2023/03/29 12:12:24;;;;;;;6.60;3.60;;;13.50;99.90;;;;;;5066031;28;20044;-36
2023/03/29 12:15:05;;;;;;;9.07;3.63;;;13.60;99.90;;;;;;5082145;28;20637;-37
2023/03/29 12:17:46;;;;;;;7.30;3.95;;;13.70;99.90;;;;;;5077432;28;20048;-35
2023/03/29 12:20:26;;;;;;;7.78;4.28;;;13.80;99.90;;;;;;5073765;28;20052;-35
2023/03/29 12:22:53;;;;;;;7.97;4.70;;;13.80;99.90;;;;;;5055448;28;20059;-37
2023/03/29 12:25:41;;;;;;;7.20;4.18;;;13.90;99.90;;;;;;5080793;28;20471;-35
2023/03/29 12:28:45;;;;;;;6.43;3.78;;;13.90;99.90;;;;;;5077213;28;20060;-35
2023/03/29 12:31:31;;;;;;;7.97;4.13;;;14.00;99.90;;;;;;5074344;28;20052;-35
2023/03/29 12:34:32;;;;;;;6.53;3.60;;;14.20;99.90;;;;;;5080286;28;20152;-35
2023/03/29 12:37:35;;;;;;;8.65;4.10;;;14.40;99.90;;;;;;5072215;28;20546;-36
2023/03/29 12:40:16;;;;;;;10.52;3.55;;;14.60;99.90;;;;;;5073974;28;20048;-36
2023/03/29 12:43:14;;;;;;;8.32;4.18;;;14.70;99.90;;;;;;5061746;28;20051;-36
2023/03/29 12:45:47;;;;;;;12.57;4.65;;;14.60;99.90;;;;;;5061662;28;20568;-35
2023/03/29 12:48:26;;;;;;;7.70;4.50;;;14.60;99.90;;;;;;5076273;28;20056;-35
2023/03/29 12:50:59;;;;;;;10.80;5.05;;;14.50;99.90;;;;;;5075383;28;20060;-37
2023/03/29 12:53:37;;;;;;;8.55;3.95;;;14.40;99.90;;;;;;5082636;28;20079;-37
2023/03/29 12:56:02;;;;;;;9.90;4.72;;;14.40;99.90;;;;;;5080783;28;20056;-36
2023/03/29 12:58:37;;;;;;;10.70;4.28;;;14.50;99.90;;;;;;5081255;28;20051;-37
2023/03/29 13:01:35;;;;;;;7.97;4.00;;;14.40;99.90;;;;;;5081577;28;20056;-37
2023/03/29 13:04:16;;;;;;;7.80;4.30;;;14.50;99.90;;;;;;5087498;28;20048;-37
2023/03/29 13:06:47;;;;;;;8.70;5.05;;;14.50;99.90;;;;;;5083038;28;20048;-37
2023/03/29 13:09:42;;;;;;;10.48;5.10;;;14.40;99.90;;;;;;5084672;28;20064;-37
2023/03/29 13:12:11;;;;;;;11.18;5.60;;;14.30;99.90;;;;;;5083579;28;20110;-36
2023/03/29 13:14:41;;;;;;;12.85;5.93;;;14.20;99.90;;;;;;5086065;28;20127;-36